Time;durP1;ratioP1;P1;durP2;ratioP2;P2;SDS_P1;SDS_P2;PMS_P1;PMS_P2;Temp;Humidity;BMP_temperature;BMP_pressure;BME280_temperature;BME280_humidity;BME280_pressure;Samples;Min_cycle;Max_cycle;Signal;HPM_P1;HPM_P2
2021/11/30 00:00:00;;;;;;;;;;;128.80;2252.80;;;;;;5073178;28;19995;-79
2021/11/30 00:02:25;;;;;;;;;;;128.60;2252.80;;;;;;5084620;28;19904;-79
2021/11/30 00:04:51;;;;;;;;;;;128.60;2252.80;;;;;;5091258;28;20343;-80
2021/11/30 00:07:17;;;;;;;;;;;128.30;2252.80;;;;;;5078452;28;19911;-81
2021/11/30 00:12:09;;;;;;;;;;;128.20;2252.80;;;;;;5074747;28;20059;-80
2021/11/30 00:14:36;;;;;;;;;;;103.30;2227.20;;;;;;5073162;28;19912;-75
2021/11/30 00:17:02;;;;;;;;;;;103.00;2227.20;;;;;;5074278;28;19949;-80
2021/11/30 00:19:28;;;;;;;;;;;102.80;2227.20;;;;;;5073301;28;19934;-80
2021/11/30 00:21:54;;;;;;;;;;;102.80;2227.20;;;;;;5074330;28;20432;-80
2021/11/30 00:24:19;;;;;;;;;;;102.80;2227.20;;;;;;5073695;28;19927;-80
2021/11/30 00:26:45;;;;;;;;;;;103.10;2227.20;;;;;;5072226;28;20402;-80
2021/11/30 00:29:10;;;;;;;;;;;102.90;2227.20;;;;;;5073240;28;19905;-80
2021/11/30 00:31:36;;;;;;;;;;;102.80;2227.20;;;;;;5072288;28;20433;-79
2021/11/30 00:34:02;;;;;;;;;;;102.80;2227.20;;;;;;5072944;28;19912;-79
2021/11/30 00:36:27;;;;;;;;;;;102.70;2227.20;;;;;;5069604;28;19904;-80
2021/11/30 00:38:53;;;;;;;;;;;102.70;2227.20;;;;;;5072934;28;19904;-80
2021/11/30 00:41:18;;;;;;;;;;;102.80;2227.20;;;;;;5072076;28;19905;-80
2021/11/30 00:43:44;;;;;;;;;;;102.80;2227.20;;;;;;5073126;28;19912;-79
2021/11/30 00:46:33;;;;;;;;;;;103.00;2227.20;;;;;;5073168;28;19905;-80
2021/11/30 00:48:59;;;;;;;;;;;102.80;2227.20;;;;;;5070396;28;19919;-80
2021/11/30 00:51:25;;;;;;;;;;;102.80;2227.20;;;;;;5072871;28;19912;-79
2021/11/30 00:53:51;;;;;;;;;;;103.00;2227.20;;;;;;5071716;28;19919;-80
2021/11/30 00:56:17;;;;;;;;;;;102.80;2227.20;;;;;;5072857;28;19905;-80
2021/11/30 00:58:44;;;;;;;;;;;103.00;2227.20;;;;;;5071617;28;19934;-79
2021/11/30 01:01:10;;;;;;;;;;;103.00;2227.20;;;;;;5073278;28;19995;-79
2021/11/30 01:03:35;;;;;;;;;;;103.10;2227.20;;;;;;5071676;28;19947;-79
2021/11/30 01:06:01;;;;;;;;;;;103.30;2227.20;;;;;;5071750;28;19904;-79
2021/11/30 01:08:27;;;;;;;;;;;103.30;2227.20;;;;;;5071461;28;19905;-79
2021/11/30 01:10:52;;;;;;;;;;;103.30;2227.20;;;;;;5071955;28;19908;-79
2021/11/30 01:13:18;;;;;;;;;;;103.30;2227.20;;;;;;5071492;28;19916;-78
2021/11/30 01:15:44;;;;;;;;;;;103.10;2227.20;;;;;;5071645;28;19912;-79
2021/11/30 01:18:10;;;;;;;;;;;103.00;2227.20;;;;;;5072484;28;20272;-79
2021/11/30 01:20:36;;;;;;;;;;;102.80;2227.20;;;;;;5068883;28;19909;-80
2021/11/30 01:23:02;;;;;;;;;;;102.90;2227.20;;;;;;5071605;28;19912;-79
2021/11/30 01:25:28;;;;;;;;;;;103.00;2227.20;;;;;;5072674;28;19905;-79
2021/11/30 01:27:53;;;;;;;;;;;102.80;2227.20;;;;;;5072921;28;20408;-80
2021/11/30 01:30:19;;;;;;;;;;;102.70;2227.20;;;;;;5072497;28;19905;-79
2021/11/30 01:32:45;;;;;;;;;;;103.00;2227.20;;;;;;5072740;28;20391;-80
2021/11/30 01:35:12;;;;;;;;;;;102.70;2227.20;;;;;;5072582;28;19905;-79
2021/11/30 01:37:38;;;;;;;;;;;102.90;2227.20;;;;;;5072067;28;20415;-80
2021/11/30 01:40:05;;;;;;;;;;;102.60;2227.20;;;;;;5070770;28;19909;-77
2021/11/30 01:42:32;;;;;;;;;;;102.80;2227.20;;;;;;5072720;28;20424;-78
2021/11/30 01:45:05;;;;;;;;;;;102.80;2227.20;;;;;;5072388;28;19905;-79
2021/11/30 01:49:58;;;;;;;;;;;102.60;2227.20;;;;;;5072255;28;20009;-77
2021/11/30 01:52:23;;;;;;;;;;;102.60;2227.20;;;;;;5075139;28;19905;-79
2021/11/30 01:54:52;;;;;;;;;;;102.60;2227.20;;;;;;5075972;28;19916;-78
2021/11/30 01:57:19;;;;;;;;;;;102.60;2227.20;;;;;;5074684;28;19905;-80
2021/11/30 01:59:45;;;;;;;;;;;102.50;2227.20;;;;;;5076088;28;19911;-78
2021/11/30 02:02:11;;;;;;;;;;;102.50;2227.20;;;;;;5075651;28;19904;-80
2021/11/30 02:04:37;;;;;;;;;;;102.80;2227.20;;;;;;5072113;28;19966;-79
2021/11/30 02:07:03;;;;;;;;;;;102.90;2227.20;;;;;;5075715;28;20360;-80
2021/11/30 02:09:29;;;;;;;;;;;103.30;2227.20;;;;;;5074549;28;19908;-80
2021/11/30 02:11:55;;;;;;;;;;;102.80;2227.20;;;;;;5074406;28;20333;-79
2021/11/30 02:14:21;;;;;;;;;;;102.90;2227.20;;;;;;5075275;28;19912;-79
2021/11/30 02:16:48;;;;;;;;;;;102.90;2227.20;;;;;;5074252;28;19918;-79
2021/11/30 02:19:13;;;;;;;;;;;103.10;2227.20;;;;;;5072790;28;20375;-74
2021/11/30 02:21:40;;;;;;;;;;;103.00;2227.20;;;;;;5075403;28;19908;-79
2021/11/30 02:24:06;;;;;;;;;;;103.10;2227.20;;;;;;5074169;28;19919;-76
2021/11/30 02:26:34;;;;;;;;;;;103.10;2227.20;;;;;;5072720;28;19912;-80
2021/11/30 02:29:02;;;;;;;;;;;102.90;2227.20;;;;;;5074392;28;19905;-80
2021/11/30 02:31:29;;;;;;;;;;;102.90;2227.20;;;;;;5075201;28;19995;-78
2021/11/30 02:33:55;;;;;;;;;;;102.90;2227.20;;;;;;5073889;28;19913;-79
2021/11/30 02:36:30;;;;;;;;;;;103.00;2227.20;;;;;;5073939;28;19912;-79
2021/11/30 02:38:57;;;;;;;;;;;103.00;2227.20;;;;;;5088375;28;20023;-79
2021/11/30 02:41:23;;;;;;;;;;;103.00;2227.20;;;;;;5074965;28;19912;-77
2021/11/30 02:43:49;;;;;;;;;;;103.00;2227.20;;;;;;5075023;28;19915;-79
2021/11/30 02:46:47;;;;;;;;;;;103.00;2227.20;;;;;;5070706;28;19908;-80
2021/11/30 02:49:14;;;;;;;;;;;103.10;2227.20;;;;;;5032402;28;19917;-79
2021/11/30 02:51:42;;;;;;;;;;;103.10;2227.20;;;;;;5032962;28;20527;-78
2021/11/30 02:54:09;;;;;;;;;;;103.10;2227.20;;;;;;5032852;28;19912;-76
2021/11/30 02:56:41;;;;;;;;;;;103.10;2227.20;;;;;;5030621;28;19905;-77
2021/11/30 02:59:07;;;;;;;;;;;103.10;2227.20;;;;;;5032600;28;19905;-75
2021/11/30 03:01:33;;;;;;;;;;;103.10;2227.20;;;;;;5032622;28;19931;-79
2021/11/30 03:03:59;;;;;;;;;;;103.00;2227.20;;;;;;5031566;28;19935;-79
2021/11/30 03:06:24;;;;;;;;;;;103.00;2227.20;;;;;;5015495;28;20015;-79
2021/11/30 03:08:50;;;;;;;;;;;103.10;2227.20;;;;;;5016118;28;19905;-79
2021/11/30 03:11:15;;;;;;;;;;;103.10;2227.20;;;;;;5015898;28;19960;-76
2021/11/30 03:13:41;;;;;;;;;;;103.10;2227.20;;;;;;5032681;28;20397;-80
2021/11/30 03:16:07;;;;;;;;;;;103.10;2227.20;;;;;;5032582;28;19905;-79
2021/11/30 03:18:34;;;;;;;;;;;103.10;2227.20;;;;;;5015827;28;19912;-79
2021/11/30 03:21:01;;;;;;;;;;;102.80;2227.20;;;;;;5042625;28;19989;-77
2021/11/30 03:23:26;;;;;;;;;;;102.80;2227.20;;;;;;5033390;28;19964;-78
2021/11/30 03:25:52;;;;;;;;;;;102.70;2227.20;;;;;;5074765;28;19993;-79
2021/11/30 03:28:17;;;;;;;;;;;102.80;2227.20;;;;;;5073385;28;20152;-77
2021/11/30 03:30:53;;;;;;;;;;;102.90;2227.20;;;;;;5072981;28;19905;-80
2021/11/30 03:36:04;;;;;;;;;;;102.80;2227.20;;;;;;5072295;28;19958;-80
2021/11/30 03:38:29;;;;;;;;;;;102.80;2227.20;;;;;;5072479;28;20314;-78
2021/11/30 03:40:55;;;;;;;;;;;102.80;2227.20;;;;;;5073645;28;19904;-74
2021/11/30 03:43:21;;;;;;;;;;;102.80;2227.20;;;;;;5073901;28;19904;-79
2021/11/30 03:45:46;;;;;;;;;;;102.70;2227.20;;;;;;5072666;28;19904;-80
2021/11/30 03:48:12;;;;;;;;;;;102.80;2227.20;;;;;;5072382;28;20349;-76
2021/11/30 03:50:38;;;;;;;;;;;102.50;2227.20;;;;;;5072427;28;19924;-79
2021/11/30 03:53:03;;;;;;;;;;;102.70;2227.20;;;;;;5073810;28;19912;-79
2021/11/30 03:55:29;;;;;;;;;;;102.70;2227.20;;;;;;5073555;28;20003;-78
2021/11/30 03:57:55;;;;;;;;;;;102.60;2227.20;;;;;;5072622;28;19904;-76
2021/11/30 04:00:20;;;;;;;;;;;102.60;2227.20;;;;;;5072351;28;19953;-79
2021/11/30 04:02:46;;;;;;;;;;;102.40;2227.20;;;;;;5073599;28;19911;-80
2021/11/30 04:05:12;;;;;;;;;;;102.40;2227.20;;;;;;5073121;28;19904;-80
2021/11/30 04:07:37;;;;;;;;;;;77.70;2227.20;;;;;;5073399;28;19912;-80
2021/11/30 04:10:03;;;;;;;;;;;77.60;2227.20;;;;;;5073339;28;19904;-79
2021/11/30 04:12:29;;;;;;;;;;;77.30;2227.20;;;;;;5072145;28;20022;-79
2021/11/30 04:14:55;;;;;;;;;;;77.40;2227.20;;;;;;5073008;28;20349;-80
2021/11/30 04:17:20;;;;;;;;;;;77.50;2227.20;;;;;;5073237;28;20261;-74
2021/11/30 04:19:46;;;;;;;;;;;77.70;2227.20;;;;;;5073237;28;19908;-78
2021/11/30 04:22:12;;;;;;;;;;;77.60;2227.20;;;;;;5073192;28;19913;-79
2021/11/30 04:24:37;;;;;;;;;;;77.40;2227.20;;;;;;5073455;28;19912;-79
2021/11/30 04:27:03;;;;;;;;;;;77.20;2227.20;;;;;;5071988;28;19904;-79
2021/11/30 04:29:29;;;;;;;;;;;77.30;2227.20;;;;;;5073509;28;19905;-79
2021/11/30 04:31:55;;;;;;;;;;;77.20;2227.20;;;;;;5072937;28;19911;-79
2021/11/30 04:34:21;;;;;;;;;;;77.30;2227.20;;;;;;5072992;28;19919;-79
2021/11/30 04:36:46;;;;;;;;;;;77.20;2227.20;;;;;;5071664;28;19904;-79
2021/11/30 04:39:12;;;;;;;;;;;77.40;2227.20;;;;;;5072969;28;19905;-79
2021/11/30 04:41:40;;;;;;;;;;;77.30;2227.20;;;;;;5073276;28;19928;-79
2021/11/30 04:44:06;;;;;;;;;;;77.10;2227.20;;;;;;5071718;28;19930;-80
2021/11/30 04:46:41;;;;;;;;;;;77.10;2227.20;;;;;;5072928;28;19911;-77
2021/11/30 04:49:34;;;;;;;;;;;77.20;2227.20;;;;;;5070830;28;19916;-76
2021/11/30 04:52:00;;;;;;;;;;;77.30;2227.20;;;;;;5067116;28;19985;-79
2021/11/30 04:54:25;;;;;;;;;;;77.40;2227.20;;;;;;5073028;28;20050;-80
2021/11/30 04:56:51;;;;;;;;;;;77.30;2227.20;;;;;;5072852;28;20378;-80
2021/11/30 04:59:19;;;;;;;;;;;77.40;2227.20;;;;;;5072990;28;19989;-76
2021/11/30 05:01:44;;;;;;;;;;;77.10;2227.20;;;;;;5071498;28;19905;-79
2021/11/30 05:04:10;;;;;;;;;;;77.10;2227.20;;;;;;5073173;28;19911;-78
2021/11/30 05:06:36;;;;;;;;;;;77.40;2227.20;;;;;;5072828;28;20356;-80
2021/11/30 05:09:03;;;;;;;;;;;77.30;2227.20;;;;;;5073032;28;19904;-78
2021/11/30 05:11:29;;;;;;;;;;;77.50;2227.20;;;;;;5071365;28;19908;-78
2021/11/30 05:13:54;;;;;;;;;;;77.50;2227.20;;;;;;5072301;28;20256;-76
2021/11/30 05:16:21;;;;;;;;;;;77.70;2227.20;;;;;;5071823;28;20303;-80
2021/11/30 05:18:46;;;;;;;;;;;102.50;2227.20;;;;;;5072617;28;19978;-79
2021/11/30 05:21:12;;;;;;;;;;;102.50;2227.20;;;;;;5071519;28;19908;-79
2021/11/30 05:23:38;;;;;;;;;;;102.50;2227.20;;;;;;5072495;28;20305;-79
2021/11/30 05:26:06;;;;;;;;;;;102.60;2227.20;;;;;;5073905;28;19930;-79
2021/11/30 05:28:33;;;;;;;;;;;102.70;2227.20;;;;;;5076509;28;19999;-79
2021/11/30 05:30:59;;;;;;;;;;;102.60;2227.20;;;;;;5076461;28;20405;-78
2021/11/30 05:33:25;;;;;;;;;;;102.60;2227.20;;;;;;5076227;28;19912;-81
2021/11/30 05:35:50;;;;;;;;;;;102.60;2227.20;;;;;;5075357;28;20349;-80
2021/11/30 05:38:16;;;;;;;;;;;102.60;2227.20;;;;;;5076488;28;19997;-80
2021/11/30 05:40:42;;;;;;;;;;;102.70;2227.20;;;;;;5075565;28;19919;-75
2021/11/30 05:43:08;;;;;;;;;;;102.60;2227.20;;;;;;5076310;28;20336;-79
2021/11/30 05:45:34;;;;;;;;;;;102.50;2227.20;;;;;;5075769;28;19915;-79
2021/11/30 05:47:59;;;;;;;;;;;102.50;2227.20;;;;;;5074633;28;19909;-76
2021/11/30 05:50:26;;;;;;;;;;;102.50;2227.20;;;;;;5075629;28;19935;-82
2021/11/30 05:52:51;;;;;;;;;;;102.60;2227.20;;;;;;5074939;28;19911;-80
2021/11/30 05:55:17;;;;;;;;;;;102.50;2227.20;;;;;;5074597;28;20002;-80
2021/11/30 05:57:43;;;;;;;;;;;102.60;2227.20;;;;;;5076045;28;20349;-77
2021/11/30 06:00:10;;;;;;;;;;;102.60;2227.20;;;;;;5075817;28;19908;-76
2021/11/30 06:02:54;;;;;;;;;;;102.50;2227.20;;;;;;5075947;28;19905;-79
2021/11/30 06:05:19;;;;;;;;;;;102.60;2227.20;;;;;;5074429;28;19919;-79
2021/11/30 06:07:45;;;;;;;;;;;102.50;2227.20;;;;;;5075660;28;19908;-79
2021/11/30 06:10:11;;;;;;;;;;;102.50;2227.20;;;;;;5076224;28;19905;-80
2021/11/30 06:12:37;;;;;;;;;;;102.50;2227.20;;;;;;5075683;28;21223;-80
2021/11/30 06:15:02;;;;;;;;;;;102.50;2227.20;;;;;;5071774;28;19916;-80
2021/11/30 06:17:28;;;;;;;;;;;102.50;2227.20;;;;;;5074447;28;20371;-79
2021/11/30 06:19:53;;;;;;;;;;;102.60;2227.20;;;;;;5074417;28;19918;-80
2021/11/30 06:22:19;;;;;;;;;;;102.50;2227.20;;;;;;5075373;28;20423;-80
2021/11/30 06:24:45;;;;;;;;;;;102.70;2227.20;;;;;;5075549;28;19905;-80
2021/11/30 06:27:10;;;;;;;;;;;102.60;2227.20;;;;;;5075824;28;20372;-79
2021/11/30 06:29:36;;;;;;;;;;;102.60;2227.20;;;;;;5074270;28;19904;-81
2021/11/30 06:32:01;;;;;;;;;;;102.70;2227.20;;;;;;5075521;28;19950;-79
2021/11/30 06:34:27;;;;;;;;;;;102.60;2227.20;;;;;;5074206;28;19942;-80
2021/11/30 06:36:53;;;;;;;;;;;102.60;2227.20;;;;;;5075049;28;19904;-80
2021/11/30 06:39:18;;;;;;;;;;;102.60;2227.20;;;;;;5073831;28;20367;-80
2021/11/30 06:41:44;;;;;;;;;;;102.60;2227.20;;;;;;5090160;28;19919;-77
2021/11/30 06:44:09;;;;;;;;;;;102.70;2227.20;;;;;;5094993;28;19931;-79
2021/11/30 06:46:35;;;;;;;;;;;102.70;2227.20;;;;;;5080438;28;19904;-80
2021/11/30 06:49:01;;;;;;;;;;;102.60;2227.20;;;;;;5074570;28;19917;-80
2021/11/30 06:51:26;;;;;;;;;;;102.60;2227.20;;;;;;5073734;28;19908;-75
2021/11/30 06:53:52;;;;;;;;;;;102.70;2227.20;;;;;;5073444;28;20352;-78
2021/11/30 06:56:17;;;;;;;;;;;102.60;2227.20;;;;;;5073094;28;19911;-79
2021/11/30 06:58:43;;;;;;;;;;;102.60;2227.20;;;;;;5074713;28;20365;-78
2021/11/30 07:01:10;;;;;;;;;;;102.50;2227.20;;;;;;5073147;28;19908;-75
2021/11/30 07:03:37;;;;;;;;;;;102.60;2227.20;;;;;;5074412;28;19936;-77
2021/11/30 07:08:54;;;;;;;;;;;102.60;2227.20;;;;;;5074800;28;20065;-78
2021/11/30 07:13:46;;;;;;;;;;;102.50;2227.20;;;;;;5071574;28;19919;-79
2021/11/30 07:16:11;;;;;;;;;;;102.50;2227.20;;;;;;5074334;28;19904;-78
2021/11/30 07:18:37;;;;;;;;;;;102.60;2227.20;;;;;;5072289;28;19974;-77
2021/11/30 07:21:03;;;;;;;;;;;102.70;2227.20;;;;;;5074268;28;19908;-76
2021/11/30 07:23:29;;;;;;;;;;;102.80;2227.20;;;;;;5072583;28;20074;-77
2021/11/30 07:25:56;;;;;;;;;;;77.70;2227.20;;;;;;5074405;28;20007;-78
2021/11/30 07:28:28;;;;;;;;;;;102.80;2227.20;;;;;;5072325;28;19904;-79
2021/11/30 07:30:55;;;;;;;;;;;102.70;2227.20;;;;;;5068611;28;19904;-77
2021/11/30 07:33:21;;;;;;;;;;;102.80;2227.20;;;;;;5072495;28;19913;-79
2021/11/30 07:35:46;;;;;;;;;;;102.80;2227.20;;;;;;5073623;28;20387;-77
2021/11/30 07:38:12;;;;;;;;;;;102.90;2227.20;;;;;;5073012;28;20044;-78
2021/11/30 07:40:38;;;;;;;;;;;102.60;2227.20;;;;;;5073609;28;19904;-80
2021/11/30 07:43:03;;;;;;;;;;;102.80;2227.20;;;;;;5074070;28;19904;-78
2021/11/30 07:45:29;;;;;;;;;;;102.70;2227.20;;;;;;5073685;28;19912;-78
2021/11/30 07:47:55;;;;;;;;;;;102.80;2227.20;;;;;;5073414;28;20387;-79
2021/11/30 07:50:20;;;;;;;;;;;102.70;2227.20;;;;;;5072976;28;19921;-80
2021/11/30 07:52:46;;;;;;;;;;;102.80;2227.20;;;;;;5073589;28;19904;-78
2021/11/30 07:55:13;;;;;;;;;;;102.90;2227.20;;;;;;5073367;28;20364;-79
2021/11/30 07:57:39;;;;;;;;;;;103.00;2227.20;;;;;;5072464;28;19912;-78
2021/11/30 08:00:07;;;;;;;;;;;103.20;2227.20;;;;;;5072475;28;19947;-78
2021/11/30 08:02:32;;;;;;;;;;;103.20;2227.20;;;;;;5070685;28;19958;-77
2021/11/30 08:04:58;;;;;;;;;;;103.30;2227.20;;;;;;5073364;28;19908;-80
2021/11/30 08:07:23;;;;;;;;;;;103.20;2227.20;;;;;;5071997;28;19905;-79
2021/11/30 08:09:50;;;;;;;;;;;128.00;2252.80;;;;;;5073168;28;19912;-76
2021/11/30 08:12:16;;;;;;;;;;;103.20;2227.20;;;;;;5072569;28;19936;-79
2021/11/30 08:14:42;;;;;;;;;;;103.30;2227.20;;;;;;5073927;28;19919;-79
2021/11/30 08:17:13;;;;;;;;;;;103.10;2227.20;;;;;;5072121;28;20345;-77
2021/11/30 08:19:40;;;;;;;;;;;103.10;2227.20;;;;;;5073251;28;19979;-76
2021/11/30 08:22:05;;;;;;;;;;;103.10;2227.20;;;;;;5072424;28;19914;-77
2021/11/30 08:24:31;;;;;;;;;;;103.10;2227.20;;;;;;5071856;28;19995;-79
2021/11/30 08:26:57;;;;;;;;;;;103.20;2227.20;;;;;;5073247;28;19924;-79
2021/11/30 08:29:22;;;;;;;;;;;103.30;2227.20;;;;;;5073036;28;19940;-77
2021/11/30 08:31:48;;;;;;;;;;;128.00;2252.80;;;;;;5073371;28;19915;-79
2021/11/30 08:34:13;;;;;;;;;;;128.10;2252.80;;;;;;5073186;28;20242;-79
2021/11/30 08:36:39;;;;;;;;;;;128.00;2252.80;;;;;;5071902;28;19926;-75
2021/11/30 08:39:05;;;;;;;;;;;128.20;2252.80;;;;;;5070839;28;19911;-72
2021/11/30 08:41:30;;;;;;;;;;;128.10;2252.80;;;;;;5073114;28;20370;-78
2021/11/30 08:43:56;;;;;;;;;;;128.20;2252.80;;;;;;5073356;28;19910;-83
2021/11/30 08:46:22;;;;;;;;;;;128.20;2252.80;;;;;;5073501;28;20272;-82
2021/11/30 08:48:47;;;;;;;;;;;128.10;2252.80;;;;;;5072805;28;20289;-77
2021/11/30 08:51:13;;;;;;;;;;;128.10;2252.80;;;;;;5073034;28;19923;-76
2021/11/30 08:53:39;;;;;;;;;;;128.00;2252.80;;;;;;5072862;28;19916;-79
2021/11/30 08:56:05;;;;;;;;;;;103.30;2227.20;;;;;;5072044;28;20054;-82
2021/11/30 08:58:31;;;;;;;;;;;128.20;2252.80;;;;;;5072417;28;19912;-83
2021/11/30 09:00:57;;;;;;;;;;;128.20;2252.80;;;;;;5074153;28;19927;-77
2021/11/30 09:03:22;;;;;;;;;;;128.30;2252.80;;;;;;5077554;28;19967;-81
2021/11/30 09:05:48;;;;;;;;;;;128.50;2252.80;;;;;;5077512;28;19904;-75
2021/11/30 09:08:13;;;;;;;;;;;128.50;2252.80;;;;;;5077446;28;19991;-76
2021/11/30 09:10:40;;;;;;;;;;;128.60;2252.80;;;;;;5077229;28;19904;-81
2021/11/30 09:13:05;;;;;;;;;;;128.50;2252.80;;;;;;5077155;28;19904;-75
2021/11/30 09:15:32;;;;;;;;;;;128.50;2252.80;;;;;;5077317;28;19930;-81
2021/11/30 09:17:58;;;;;;;;;;;128.40;2252.80;;;;;;5077200;28;19948;-81
2021/11/30 09:20:24;;;;;;;;;;;128.60;2252.80;;;;;;5076164;28;19919;-82
2021/11/30 09:22:50;;;;;;;;;;;128.50;2252.80;;;;;;5076981;28;19904;-82
2021/11/30 09:25:16;;;;;;;;;;;128.50;2252.80;;;;;;5077355;28;19904;-79
2021/11/30 09:27:43;;;;;;;;;;;128.40;2252.80;;;;;;5075747;28;20383;-81
2021/11/30 09:30:10;;;;;;;;;;;128.20;2252.80;;;;;;5076015;28;20007;-79
2021/11/30 09:32:36;;;;;;;;;;;128.30;2252.80;;;;;;5075718;28;19908;-80
2021/11/30 09:35:02;;;;;;;;;;;128.40;2252.80;;;;;;5076718;28;20061;-79
2021/11/30 09:37:29;;;;;;;;;;;128.30;2252.80;;;;;;5076103;28;20020;-80
2021/11/30 09:39:55;;;;;;;;;;;128.60;2252.80;;;;;;5076251;28;19962;-80
2021/11/30 09:42:20;;;;;;;;;;;128.90;2252.80;;;;;;5075724;28;19993;-81
2021/11/30 09:44:47;;;;;;;;;;;153.70;2252.80;;;;;;5075888;28;19991;-75
2021/11/30 09:47:14;;;;;;;;;;;153.80;2252.80;;;;;;5075969;28;19904;-78
2021/11/30 09:49:39;;;;;;;;;;;154.00;2252.80;;;;;;5074564;28;19924;-77
2021/11/30 09:52:05;;;;;;;;;;;154.40;2252.80;;;;;;5074968;28;19916;-77
2021/11/30 09:54:31;;;;;;;;;;;154.40;2252.80;;;;;;5075000;28;19950;-80
2021/11/30 09:56:57;;;;;;;;;;;154.30;2252.80;;;;;;5076560;28;19912;-80
2021/11/30 09:59:22;;;;;;;;;;;154.40;2252.80;;;;;;5080832;28;19904;-79
2021/11/30 10:01:48;;;;;;;;;;;154.40;2252.80;;;;;;5086314;28;19991;-76
2021/11/30 10:04:14;;;;;;;;;;;179.20;2252.80;;;;;;5078566;28;19908;-78
2021/11/30 10:06:39;;;;;;;;;;;179.30;2252.80;;;;;;5075587;28;19904;-78
2021/11/30 10:09:15;;;;;;;;;;;179.70;2252.80;;;;;;5074387;28;19912;-79
2021/11/30 10:11:41;;;;;;;;;;;179.80;2252.80;;;;;;5074173;28;19931;-76
2021/11/30 10:14:11;;;;;;;;;;;154.40;2252.80;;;;;;5076258;28;20349;-81
2021/11/30 10:16:36;;;;;;;;;;;154.50;2252.80;;;;;;5075541;28;19904;-75
2021/11/30 10:19:02;;;;;;;;;;;179.60;2252.80;;;;;;5074193;28;19915;-80
2021/11/30 10:21:28;;;;;;;;;;;179.70;2252.80;;;;;;5075202;28;19915;-80
2021/11/30 10:23:56;;;;;;;;;;;179.90;2252.80;;;;;;5075668;28;19904;-80
2021/11/30 10:26:26;;;;;;;;;;;180.10;2252.80;;;;;;5075211;28;19912;-78
2021/11/30 10:28:57;;;;;;;;;;;180.10;2252.80;;;;;;5071355;28;19905;-79
2021/11/30 10:31:28;;;;;;;;;;;180.00;2252.80;;;;;;5074964;28;19905;-80
2021/11/30 10:33:54;;;;;;;;;;;179.60;2252.80;;;;;;5074377;28;19908;-79
2021/11/30 10:36:20;;;;;;;;;;;179.30;2252.80;;;;;;5075973;28;19999;-78
2021/11/30 10:38:46;;;;;;;;;;;179.30;2252.80;;;;;;5075775;28;19911;-79
2021/11/30 10:41:21;;;;;;;;;;;179.20;2252.80;;;;;;5075423;28;20364;-79
2021/11/30 10:43:58;;;;;;;;;;;179.30;2252.80;;;;;;5073633;28;19909;-78
2021/11/30 10:46:29;;;;;;;;;;;179.50;2252.80;;;;;;5073266;28;19908;-78
2021/11/30 10:48:56;;;;;;;;;;;179.90;2252.80;;;;;;5074878;28;19917;-78
2021/11/30 10:51:21;;;;;;;;;;;180.00;2252.80;;;;;;5074601;28;19908;-79
2021/11/30 10:53:49;;;;;;;;;;;180.00;2252.80;;;;;;5074796;28;19912;-78
2021/11/30 10:56:17;;;;;;;;;;;180.00;2252.80;;;;;;5074435;28;19904;-81
2021/11/30 10:58:43;;;;;;;;;;;179.90;2252.80;;;;;;5074481;28;19904;-79
2021/11/30 11:01:11;;;;;;;;;;;179.90;2252.80;;;;;;5074519;28;20054;-77
2021/11/30 11:03:37;;;;;;;;;;;180.10;2252.80;;;;;;5074206;28;19905;-77
2021/11/30 11:08:51;;;;;;;;;;;205.20;2252.80;;;;;;5071847;28;19927;-77
2021/11/30 11:11:21;;;;;;;;;;;205.20;2252.80;;;;;;5073533;28;19911;-77
2021/11/30 11:13:47;;;;;;;;;;;205.10;2252.80;;;;;;5071654;28;19982;-79
2021/11/30 11:16:19;;;;;;;;;;;205.60;2252.80;;;;;;5075026;28;19936;-80
2021/11/30 11:18:45;;;;;;;;;;;205.50;2252.80;;;;;;5075147;28;19955;-83
2021/11/30 11:21:11;;;;;;;;;;;230.40;2252.80;;;;;;5074481;28;19920;-80
2021/11/30 11:23:41;;;;;;;;;;;205.60;2252.80;;;;;;5073466;28;19995;-76
2021/11/30 11:26:42;;;;;;;;;;;205.60;2252.80;;;;;;5073786;28;19905;-76
2021/11/30 11:29:09;;;;;;;;;;;205.40;2252.80;;;;;;5013812;28;19936;-77
2021/11/30 11:31:36;;;;;;;;;;;230.50;2252.80;;;;;;5032069;28;19911;-75
2021/11/30 11:34:02;;;;;;;;;;;230.40;2252.80;;;;;;5031668;28;19955;-78
2021/11/30 11:36:28;;;;;;;;;;;230.60;2201.60;;;;;;5032254;28;19905;-78
2021/11/30 11:38:54;;;;;;;;;;;230.40;2176.00;;;;;;5032092;28;19936;-79
2021/11/30 11:41:19;;;;;;;;;;;230.40;2201.60;;;;;;5032367;28;19905;-77
2021/11/30 11:43:45;;;;;;;;;;;230.50;2201.60;;;;;;5032083;28;19935;-78
2021/11/30 11:46:12;;;;;;;;;;;230.40;2201.60;;;;;;5014674;28;20328;-77
2021/11/30 11:48:38;;;;;;;;;;;230.50;2176.00;;;;;;5031511;28;19921;-80
2021/11/30 11:51:04;;;;;;;;;;;230.60;2176.00;;;;;;5014782;28;19992;-80
2021/11/30 11:53:31;;;;;;;;;;;230.50;2150.40;;;;;;5031387;28;19912;-76
2021/11/30 11:56:17;;;;;;;;;;;230.50;2150.40;;;;;;5031070;28;19912;-79
2021/11/30 11:58:44;;;;;;;;;;;230.50;2176.00;;;;;;5024429;28;19905;-78
2021/11/30 12:01:18;;;;;;;;;;;230.50;2201.60;;;;;;5031259;28;19916;-79
2021/11/30 12:03:59;;;;;;;;;;;230.50;2150.40;;;;;;5063020;28;19908;-78
2021/11/30 12:06:27;;;;;;;;;;;230.40;2201.60;;;;;;5052337;28;19936;-77
2021/11/30 12:09:12;;;;;;;;;;;205.60;2227.20;;;;;;5053923;28;19930;-78
2021/11/30 12:11:40;;;;;;;;;;;205.40;2227.20;;;;;;5053472;28;19999;-78
2021/11/30 12:14:09;;;;;;;;;;;205.40;2227.20;;;;;;5053669;28;20380;-79
2021/11/30 12:17:09;;;;;;;;;;;205.50;2227.20;;;;;;5053333;28;19932;-78
2021/11/30 12:19:42;;;;;;;;;;;205.40;2201.60;;;;;;5011654;28;19913;-80
2021/11/30 12:22:09;;;;;;;;;;;205.50;2201.60;;;;;;5011978;28;19910;-79
2021/11/30 12:24:39;;;;;;;;;;;205.40;2176.00;;;;;;5011807;28;19951;-78
2021/11/30 12:27:25;;;;;;;;;;;205.40;2201.60;;;;;;5011330;28;19928;-75
2021/11/30 12:29:52;;;;;;;;;;;205.30;2201.60;;;;;;4972649;28;19913;-78
2021/11/30 12:32:33;;;;;;;;;;;205.30;2176.00;;;;;;4972795;28;19961;-80
2021/11/30 12:35:01;;;;;;;;;;;205.40;2201.60;;;;;;4972627;28;19921;-80
2021/11/30 12:37:30;;;;;;;;;;;205.50;2201.60;;;;;;4973097;28;19906;-82
2021/11/30 12:40:09;;;;;;;;;;;205.30;2176.00;;;;;;4972888;28;19914;-78
2021/11/30 12:42:38;;;;;;;;;;;205.30;2150.40;;;;;;4973091;28;19933;-80
2021/11/30 12:45:04;;;;;;;;;;;205.20;2150.40;;;;;;4973279;28;19994;-75
2021/11/30 12:47:30;;;;;;;;;;;205.20;2150.40;;;;;;4971930;28;19956;-78
2021/11/30 12:49:56;;;;;;;;;;;205.20;2124.80;;;;;;4972539;28;19934;-79
2021/11/30 12:52:24;;;;;;;;;;;205.20;2150.40;;;;;;4972266;28;19945;-76
2021/11/30 12:54:54;;;;;;;;;;;205.30;2176.00;;;;;;4987058;28;19959;-79
2021/11/30 12:57:28;;;;;;;;;;;205.30;2150.40;;;;;;5011575;28;19959;-80
2021/11/30 13:00:14;;;;;;;;;;;205.30;2150.40;;;;;;5011823;28;19913;-79
2021/11/30 13:02:42;;;;;;;;;;;205.20;2073.60;;;;;;5001069;28;19960;-79
2021/11/30 13:05:07;;;;;;;;;;;205.20;2099.20;;;;;;5011591;28;19912;-80
2021/11/30 13:07:33;;;;;;;;;;;205.10;2124.80;;;;;;5057800;28;19909;-80
2021/11/30 13:09:59;;;;;;;;;;;205.10;2099.20;;;;;;5072452;28;19916;-80
2021/11/30 13:12:29;;;;;;;;;;;205.10;2099.20;;;;;;5073225;28;19904;-80
2021/11/30 13:14:55;;;;;;;;;;;205.10;2099.20;;;;;;5083165;28;19912;-81
2021/11/30 13:17:25;;;;;;;;;;;205.00;2124.80;;;;;;5084462;28;19935;-78
2021/11/30 13:19:50;;;;;;;;;;;205.10;2124.80;;;;;;5074895;28;19915;-81
2021/11/30 13:22:17;;;;;;;;;;;205.20;2150.40;;;;;;5072912;28;19916;-76
2021/11/30 13:24:44;;;;;;;;;;;205.20;2150.40;;;;;;5072942;28;20352;-81
2021/11/30 13:27:12;;;;;;;;;;;205.20;2176.00;;;;;;5073066;28;19908;-81
2021/11/30 13:29:38;;;;;;;;;;;205.30;2150.40;;;;;;5072854;28;20323;-74
2021/11/30 13:32:06;;;;;;;;;;;205.20;2124.80;;;;;;5072438;28;19922;-81
2021/11/30 13:34:31;;;;;;;;;;;205.20;2150.40;;;;;;5072617;28;19957;-81
2021/11/30 13:36:57;;;;;;;;;;;205.20;2150.40;;;;;;5072406;28;20309;-80
2021/11/30 13:39:23;;;;;;;;;;;205.10;2099.20;;;;;;5072537;28;19926;-80
2021/11/30 13:41:48;;;;;;;;;;;205.10;2124.80;;;;;;5072536;28;19915;-75
2021/11/30 13:44:14;;;;;;;;;;;205.10;2099.20;;;;;;5071666;28;19904;-80
2021/11/30 13:46:41;;;;;;;;;;;205.00;2099.20;;;;;;5073807;28;19908;-80
2021/11/30 13:49:07;;;;;;;;;;;205.00;2099.20;;;;;;5076345;28;19924;-81
2021/11/30 13:51:35;;;;;;;;;;;205.00;2150.40;;;;;;5076243;28;19916;-81
2021/11/30 13:54:02;;;;;;;;;;;205.00;2099.20;;;;;;5076022;28;19927;-81
2021/11/30 13:56:30;;;;;;;;;;;204.90;2099.20;;;;;;5075968;28;19905;-78